Terminal Aerodrome Forecast
Issued by NWS Upton, NY

Home | Current Version | Previous Version | Text Only | Print | Product List | Glossary On
Versions: 1 2 3 4 5 6 7 8 9 10 11 12 13 14 15 16 17 18 19 20 21 22 23 24 25
000
FTUS41 KOKX 011700
TAFISP
TAF
KISP 011736Z 0118/0218 24006KT P6SM BKN040
     FM020300 VRB04KT 2SM -SN SCT008 SCT020 OVC040
     FM020600 10010KT 1SM -SN OVC008
     FM020900 10014KT 1SM -SN OVC005
      TEMPO 0209/0211 1/2SM SN
     FM021100 09016KT 1SM -FZRASN OVC005
     FM021200 08015KT 1SM +RA BR OVC004
     FM021600 03011KT 2SM RA BR OVC004=

USA.gov is the U.S. government's official web portal to all federal, state and local government web resources and services.